createdAt,value
2017-07-02T00:02:11.090Z,82.94
2017-07-02T00:04:40.184Z,83.12
2017-07-02T00:07:09.303Z,83.03
2017-07-02T00:09:38.344Z,83.41
2017-07-02T00:12:07.407Z,83.79
2017-07-02T00:14:37.244Z,83.76
2017-07-02T00:17:06.298Z,83.66
2017-07-02T00:19:35.345Z,84.02
2017-07-02T00:22:04.778Z,83.62
2017-07-02T00:24:33.860Z,83.55
2017-07-02T00:27:02.974Z,83.51
2017-07-02T00:29:32.059Z,83.72
2017-07-02T00:32:01.120Z,84.03
2017-07-02T00:34:30.240Z,83.63
2017-07-02T00:36:59.333Z,83.71
2017-07-02T00:39:29.150Z,84.06
2017-07-02T00:41:58.248Z,84.22
2017-07-02T00:44:27.304Z,84.25
2017-07-02T00:46:57.167Z,84.17
2017-07-02T00:49:26.242Z,83.90
2017-07-02T00:51:55.315Z,84.08
2017-07-02T00:54:24.390Z,84.33
2017-07-02T00:56:53.453Z,84.51
2017-07-02T00:59:22.562Z,84.71
2017-07-02T01:01:51.645Z,84.74
2017-07-02T01:04:20.723Z,84.98
2017-07-02T01:06:49.784Z,84.93
2017-07-02T01:09:18.904Z,84.96
2017-07-02T01:11:47.975Z,84.84
2017-07-02T01:14:18.092Z,84.90
2017-07-02T01:16:47.925Z,85.43
2017-07-02T01:19:16.978Z,85.47
2017-07-02T01:21:46.043Z,86.12
2017-07-02T01:24:15.143Z,85.66
2017-07-02T01:26:44.203Z,85.81
2017-07-02T01:29:13.282Z,86.03
2017-07-02T01:31:43.112Z,85.95
2017-07-02T01:34:12.179Z,85.69
2017-07-02T01:36:42.032Z,85.47
2017-07-02T01:39:11.108Z,85.23
2017-07-02T01:41:40.248Z,85.59
2017-07-02T01:44:09.301Z,85.43
2017-07-02T01:46:38.380Z,85.48
2017-07-02T01:49:08.250Z,85.75
2017-07-02T01:51:37.632Z,85.69
2017-07-02T01:54:06.715Z,85.83
2017-07-02T01:56:35.814Z,85.89
2017-07-02T01:59:04.892Z,85.79
2017-07-02T02:01:52.479Z,85.73
2017-07-02T02:04:21.540Z,85.59
2017-07-02T02:06:50.616Z,85.62
2017-07-02T02:09:19.676Z,85.46
2017-07-02T02:11:48.804Z,85.41
2017-07-02T02:14:18.865Z,85.88
2017-07-02T02:16:47.955Z,85.88
2017-07-02T02:19:17.029Z,85.76
2017-07-02T02:21:46.106Z,85.86
2017-07-02T02:24:15.195Z,86.12
2017-07-02T02:26:45.007Z,86.26
2017-07-02T02:29:14.110Z,86.35
2017-07-02T02:31:43.164Z,86.48
2017-07-02T02:34:12.247Z,86.51
2017-07-02T02:36:41.310Z,86.49
2017-07-02T02:39:10.424Z,86.51
2017-07-02T02:41:39.503Z,86.30
2017-07-02T02:44:08.567Z,86.72
2017-07-02T02:46:38.413Z,86.82
2017-07-02T02:49:07.528Z,86.93
2017-07-02T02:51:36.619Z,87.04
2017-07-02T02:54:05.686Z,86.90
2017-07-02T02:56:35.108Z,86.88
2017-07-02T02:59:04.375Z,87.10
2017-07-02T03:01:33.407Z,87.02
2017-07-02T03:04:02.538Z,87.13
2017-07-02T03:06:31.588Z,87.09
2017-07-02T03:09:00.670Z,87.02
2017-07-02T03:11:29.721Z,86.95
2017-07-02T03:13:58.800Z,87.10
2017-07-02T03:16:28.005Z,87.11
2017-07-02T03:18:57.084Z,87.21
2017-07-02T03:21:26.208Z,87.26
2017-07-02T03:23:55.273Z,87.27
2017-07-02T03:26:24.340Z,86.97
2017-07-02T03:28:54.192Z,86.91
2017-07-02T03:31:23.269Z,87.00
2017-07-02T03:33:52.425Z,87.10
2017-07-02T03:36:21.475Z,86.65
2017-07-02T03:38:50.821Z,86.51
2017-07-02T03:41:19.892Z,86.25
2017-07-02T03:43:49.169Z,86.56
2017-07-02T03:46:18.256Z,86.52
2017-07-02T03:48:47.338Z,86.37
2017-07-02T03:51:16.432Z,86.34
2017-07-02T03:53:45.488Z,86.43
2017-07-02T03:56:14.551Z,86.56
2017-07-02T03:58:43.601Z,86.28
2017-07-02T04:01:12.685Z,86.14
2017-07-02T04:03:41.757Z,86.10
2017-07-02T04:06:10.856Z,85.86
2017-07-02T04:08:39.932Z,85.77
2017-07-02T04:11:08.984Z,85.77
2017-07-02T04:13:38.072Z,85.78
2017-07-02T04:16:07.220Z,85.29
2017-07-02T04:18:36.271Z,85.40
2017-07-02T04:21:05.576Z,85.27
2017-07-02T04:23:34.636Z,85.35
2017-07-02T04:26:03.696Z,85.20
2017-07-02T04:28:32.803Z,85.05
2017-07-02T04:31:01.856Z,84.59
2017-07-02T04:33:32.136Z,84.44
2017-07-02T04:36:01.217Z,84.12
2017-07-02T04:38:30.525Z,83.76
2017-07-02T04:40:59.612Z,83.79
2017-07-02T04:43:28.647Z,83.73
2017-07-02T04:45:57.731Z,83.97
2017-07-02T04:48:27.681Z,83.36
2017-07-02T04:50:56.756Z,82.86
2017-07-02T04:53:25.824Z,82.71
2017-07-02T04:55:54.877Z,82.05
2017-07-02T04:58:23.977Z,82.28
2017-07-02T05:00:53.035Z,82.21
2017-07-02T05:03:22.094Z,81.52
2017-07-02T05:05:51.156Z,81.64
2017-07-02T05:08:20.283Z,81.62
2017-07-02T05:10:49.370Z,81.59
2017-07-02T05:13:18.436Z,81.41
2017-07-02T05:15:47.488Z,80.71
2017-07-02T05:18:16.580Z,81.39
2017-07-02T05:20:45.693Z,81.29
2017-07-02T05:23:14.768Z,80.94
2017-07-02T05:25:44.047Z,80.91
2017-07-02T05:28:13.116Z,80.97
2017-07-02T05:30:42.189Z,80.69
2017-07-02T05:33:11.277Z,80.35
2017-07-02T05:35:40.568Z,80.17
2017-07-02T05:38:09.659Z,80.44
2017-07-02T05:40:38.745Z,80.52
2017-07-02T05:43:07.840Z,80.12
2017-07-02T05:45:36.927Z,79.91
2017-07-02T05:48:05.967Z,79.49
2017-07-02T05:50:35.059Z,79.79
2017-07-02T05:53:04.140Z,79.07
2017-07-02T05:55:33.204Z,79.50
2017-07-02T05:58:02.276Z,79.47
2017-07-02T06:00:31.369Z,79.49
2017-07-02T06:03:00.425Z,79.22
2017-07-02T06:05:29.528Z,79.00
2017-07-02T06:07:58.589Z,78.21
2017-07-02T06:10:27.660Z,78.27
2017-07-02T06:12:56.748Z,78.24
2017-07-02T06:15:25.827Z,78.10
2017-07-02T06:17:54.898Z,78.04
2017-07-02T06:20:24.043Z,78.64
2017-07-02T06:22:53.130Z,78.37
2017-07-02T06:25:22.194Z,77.95
2017-07-02T06:27:51.587Z,77.95
2017-07-02T06:30:20.673Z,77.40
2017-07-02T06:32:49.734Z,77.84
2017-07-02T06:35:18.845Z,77.63
2017-07-02T06:37:47.895Z,78.05
2017-07-02T06:40:17.076Z,77.66
2017-07-02T06:42:46.121Z,78.07
2017-07-02T06:45:15.175Z,77.34
2017-07-02T06:47:44.304Z,77.86
2017-07-02T06:50:13.373Z,77.55
2017-07-02T06:52:42.431Z,77.69
2017-07-02T06:55:11.588Z,76.93
2017-07-02T06:57:40.863Z,77.27
2017-07-02T07:00:09.996Z,77.01
2017-07-02T07:02:39.063Z,77.29
2017-07-02T07:05:08.161Z,77.28
2017-07-02T07:07:37.268Z,77.64
2017-07-02T07:10:06.333Z,77.45
2017-07-02T07:12:35.396Z,76.87
2017-07-02T07:15:04.515Z,77.02
2017-07-02T07:17:33.589Z,77.13
2017-07-02T07:20:02.651Z,77.81
2017-07-02T07:22:31.747Z,77.09
2017-07-02T07:25:00.784Z,77.82
2017-07-02T07:27:29.853Z,77.14
2017-07-02T07:29:58.908Z,76.07
2017-07-02T07:32:27.975Z,76.82
2017-07-02T07:34:57.040Z,75.75
2017-07-02T07:37:26.135Z,74.85
2017-07-02T07:39:55.228Z,75.79
2017-07-02T07:42:24.282Z,75.12
2017-07-02T07:44:53.347Z,76.46
2017-07-02T07:47:22.425Z,74.50
2017-07-02T07:49:51.535Z,74.79
2017-07-02T07:52:20.584Z,75.08
2017-07-02T07:54:49.755Z,75.49
2017-07-02T07:57:18.893Z,75.06
2017-07-02T07:59:48.108Z,75.53
2017-07-02T08:02:17.196Z,74.69
2017-07-02T08:04:46.269Z,74.39
2017-07-02T08:07:15.380Z,74.27
2017-07-02T08:09:44.436Z,74.09
2017-07-02T08:12:13.531Z,73.60
2017-07-02T08:14:42.616Z,73.97
2017-07-02T08:17:11.788Z,74.06
2017-07-02T08:19:40.843Z,73.66
2017-07-02T08:22:09.909Z,74.00
2017-07-02T08:24:39.230Z,74.42
2017-07-02T08:27:08.347Z,74.18
2017-07-02T08:29:37.699Z,73.97
2017-07-02T08:32:06.769Z,74.02
2017-07-02T08:34:35.845Z,74.25
2017-07-02T08:37:04.912Z,74.09
2017-07-02T08:39:34.012Z,74.71
2017-07-02T08:42:03.115Z,74.73
2017-07-02T08:44:32.183Z,74.61
2017-07-02T08:47:01.281Z,74.91
2017-07-02T08:49:30.354Z,74.45
2017-07-02T08:51:59.471Z,74.62
2017-07-02T08:54:28.545Z,74.22
2017-07-02T08:56:57.624Z,73.78
2017-07-02T08:59:26.723Z,74.05
2017-07-02T09:01:55.755Z,74.44
2017-07-02T09:04:24.831Z,74.97
2017-07-02T09:06:53.924Z,74.48
2017-07-02T09:09:22.976Z,74.03
2017-07-02T09:11:52.056Z,74.59
2017-07-02T09:14:21.132Z,74.82
2017-07-02T09:16:50.216Z,75.20
2017-07-02T09:19:19.332Z,75.06
2017-07-02T09:21:48.586Z,75.81
2017-07-02T09:24:17.904Z,75.71
2017-07-02T09:26:46.981Z,76.39
2017-07-02T09:29:16.039Z,75.84
2017-07-02T09:31:45.128Z,76.14
2017-07-02T09:34:14.210Z,76.30
2017-07-02T09:36:43.312Z,76.77
2017-07-02T09:39:12.396Z,76.23
2017-07-02T09:41:41.492Z,76.49
2017-07-02T09:44:10.626Z,77.10
2017-07-02T09:46:39.710Z,76.88
2017-07-02T09:49:08.806Z,77.01
2017-07-02T09:51:37.887Z,77.26
2017-07-02T09:54:07.073Z,77.35
2017-07-02T09:56:36.121Z,77.59
2017-07-02T09:59:05.261Z,77.32
2017-07-02T10:01:34.334Z,77.28
2017-07-02T10:04:03.503Z,76.91
2017-07-02T10:06:32.579Z,76.58
2017-07-02T10:09:01.636Z,77.01
2017-07-02T10:11:30.744Z,78.30
2017-07-02T10:13:59.812Z,78.42
2017-07-02T10:16:28.895Z,79.38
2017-07-02T10:18:57.983Z,80.90
2017-07-02T10:21:28.357Z,82.10
2017-07-02T10:23:57.419Z,81.53
2017-07-02T10:26:26.527Z,81.66
2017-07-02T10:28:55.597Z,81.98
2017-07-02T10:31:24.708Z,82.77
2017-07-02T10:33:55.141Z,83.13
2017-07-02T10:36:24.225Z,84.11
2017-07-02T10:38:53.311Z,84.59
2017-07-02T10:41:22.401Z,85.29
2017-07-02T10:43:51.489Z,85.51
2017-07-02T10:46:20.567Z,85.90
2017-07-02T10:48:49.654Z,86.83
2017-07-02T10:51:18.817Z,87.19
2017-07-02T10:53:47.887Z,87.77
2017-07-02T10:56:16.956Z,87.74
2017-07-02T10:58:46.065Z,87.88
2017-07-02T11:01:15.176Z,87.17
2017-07-02T11:03:44.211Z,87.46
2017-07-02T11:06:13.275Z,87.69
2017-07-02T11:08:42.396Z,87.87
2017-07-02T11:11:11.477Z,87.75
2017-07-02T11:13:40.539Z,87.17
2017-07-02T11:16:09.641Z,86.19
2017-07-02T11:18:38.734Z,85.18
2017-07-02T11:21:07.822Z,85.17
2017-07-02T11:23:36.893Z,84.54
2017-07-02T11:26:05.952Z,83.87
2017-07-02T11:28:35.043Z,83.56
2017-07-02T11:31:04.108Z,83.35
2017-07-02T11:33:33.221Z,83.31
2017-07-02T11:36:02.270Z,83.24
2017-07-02T11:38:31.329Z,82.97
2017-07-02T11:41:00.418Z,82.37
2017-07-02T11:43:29.500Z,82.89
2017-07-02T11:45:58.568Z,82.05
2017-07-02T11:48:27.661Z,81.67
2017-07-02T11:50:56.752Z,81.61
2017-07-02T11:53:25.810Z,82.03
2017-07-02T11:55:54.975Z,81.79
2017-07-02T11:58:24.239Z,81.75
2017-07-02T12:00:53.299Z,82.08
2017-07-02T12:03:22.386Z,82.67
2017-07-02T12:05:51.467Z,82.23
2017-07-02T12:08:20.545Z,82.56
2017-07-02T12:10:49.651Z,83.02
2017-07-02T12:13:18.722Z,83.12
2017-07-02T12:15:48.901Z,82.70
2017-07-02T12:18:18.006Z,82.32
2017-07-02T12:20:48.198Z,82.28
2017-07-02T12:23:17.253Z,82.92
2017-07-02T12:25:46.337Z,82.96
2017-07-02T12:28:15.439Z,83.16
2017-07-02T12:30:44.500Z,83.33
2017-07-02T12:33:13.612Z,83.92
2017-07-02T12:35:42.700Z,84.47
2017-07-02T12:38:11.773Z,85.33
2017-07-02T12:40:40.819Z,86.36
2017-07-02T12:43:10.165Z,87.56
2017-07-02T12:45:39.226Z,86.98
2017-07-02T12:48:08.339Z,86.93
2017-07-02T12:50:37.404Z,84.93
2017-07-02T12:53:06.488Z,84.28
2017-07-02T12:55:35.599Z,84.28
2017-07-02T12:58:04.747Z,82.92
2017-07-02T13:00:33.820Z,83.05
2017-07-02T13:03:02.905Z,83.70
2017-07-02T13:05:31.967Z,83.32
2017-07-02T13:08:01.017Z,80.84
2017-07-02T13:10:30.083Z,82.22
2017-07-02T13:12:59.172Z,79.36
2017-07-02T13:15:28.269Z,77.46
2017-07-02T13:17:57.337Z,79.78
2017-07-02T13:20:26.420Z,80.00
2017-07-02T13:22:55.504Z,77.20
2017-07-02T13:25:24.616Z,75.99
2017-07-02T13:27:53.681Z,77.24
2017-07-02T13:30:22.782Z,77.78
2017-07-02T13:32:51.873Z,77.52
2017-07-02T13:35:20.954Z,76.28
2017-07-02T13:37:50.040Z,76.49
2017-07-02T13:40:19.122Z,76.60
2017-07-02T13:42:48.194Z,75.45
2017-07-02T13:45:17.253Z,75.49
2017-07-02T13:47:46.364Z,74.97
2017-07-02T13:50:15.426Z,73.68
2017-07-02T13:52:44.704Z,74.72
2017-07-02T13:55:13.826Z,75.18
2017-07-02T13:57:42.887Z,74.20
2017-07-02T14:00:12.182Z,74.57
2017-07-02T14:02:41.241Z,72.43
2017-07-02T14:05:10.319Z,72.42
2017-07-02T14:07:39.388Z,71.04
2017-07-02T14:10:08.482Z,71.58
2017-07-02T14:12:37.574Z,69.90
2017-07-02T14:15:06.649Z,71.34
2017-07-02T14:17:35.734Z,72.32
2017-07-02T14:20:04.837Z,73.82
2017-07-02T14:22:33.902Z,69.83
2017-07-02T14:25:03.001Z,69.91
2017-07-02T14:27:32.104Z,68.65
2017-07-02T14:30:01.143Z,68.16
2017-07-02T14:32:30.237Z,69.15
2017-07-02T14:34:59.346Z,66.86
2017-07-02T14:37:28.381Z,66.67
2017-07-02T14:39:57.438Z,64.13
2017-07-02T14:42:26.733Z,65.82
2017-07-02T14:44:55.787Z,64.71
2017-07-02T14:47:24.853Z,63.96
2017-07-02T14:49:53.937Z,63.77
2017-07-02T14:52:23.036Z,64.60
2017-07-02T14:54:52.108Z,65.86
2017-07-02T14:57:21.206Z,65.53
2017-07-02T14:59:50.304Z,65.44
2017-07-02T15:02:19.403Z,65.14
2017-07-02T15:04:48.465Z,66.36
2017-07-02T15:07:17.567Z,65.87
2017-07-02T15:09:46.674Z,66.99
2017-07-02T15:12:15.704Z,68.29
2017-07-02T15:14:44.836Z,70.15
2017-07-02T15:17:14.918Z,70.77
2017-07-02T15:19:44.002Z,73.23
2017-07-02T15:22:13.065Z,74.64
2017-07-02T15:24:42.267Z,75.06
2017-07-02T15:27:11.357Z,76.07
2017-07-02T15:29:40.463Z,75.14
2017-07-02T15:32:09.522Z,74.98
2017-07-02T15:34:38.575Z,73.60
2017-07-02T15:37:07.664Z,74.39
2017-07-02T15:39:36.744Z,72.81
2017-07-02T15:42:05.865Z,72.92
2017-07-02T15:44:34.914Z,71.07
2017-07-02T15:47:03.978Z,70.83
2017-07-02T15:49:33.091Z,69.43
2017-07-02T15:52:02.167Z,69.83
2017-07-02T15:54:31.282Z,69.18
2017-07-02T15:57:00.325Z,68.73
2017-07-02T15:59:29.442Z,70.24
2017-07-02T16:01:58.504Z,68.50
2017-07-02T16:04:27.563Z,66.82
2017-07-02T16:06:56.646Z,65.89
2017-07-02T16:09:25.713Z,63.89
2017-07-02T16:11:54.784Z,63.96
2017-07-02T16:14:24.123Z,64.16
2017-07-02T16:16:53.197Z,64.44
2017-07-02T16:19:22.256Z,64.36
2017-07-02T16:21:51.453Z,62.12
2017-07-02T16:24:20.505Z,62.85
2017-07-02T16:26:49.596Z,63.74
2017-07-02T16:29:18.656Z,63.87
2017-07-02T16:31:47.819Z,63.74
2017-07-02T16:34:17.039Z,62.58
2017-07-02T16:36:46.101Z,62.64
2017-07-02T16:39:15.322Z,63.72
2017-07-02T16:41:44.384Z,62.42
2017-07-02T16:44:13.474Z,62.66
2017-07-02T16:46:42.595Z,60.84
2017-07-02T16:49:11.694Z,60.11
2017-07-02T16:51:40.777Z,61.39
2017-07-02T16:54:09.851Z,60.22
2017-07-02T16:56:38.927Z,59.91
2017-07-02T16:59:08.038Z,58.48
2017-07-02T17:01:37.133Z,58.01
2017-07-02T17:04:06.272Z,57.42
2017-07-02T17:06:35.319Z,56.25
2017-07-02T17:09:04.449Z,56.00
2017-07-02T17:11:33.489Z,57.82
2017-07-02T17:14:02.574Z,57.44
2017-07-02T17:16:31.620Z,58.41
2017-07-02T17:19:00.685Z,58.48
2017-07-02T17:21:29.773Z,58.80
2017-07-02T17:23:59.074Z,59.81
2017-07-02T17:26:28.125Z,59.73
2017-07-02T17:28:57.183Z,59.55
2017-07-02T17:31:26.253Z,58.93
2017-07-02T17:33:55.333Z,58.41
2017-07-02T17:36:24.413Z,59.08
2017-07-02T17:38:53.462Z,58.21
2017-07-02T17:41:22.587Z,58.12
2017-07-02T17:43:51.646Z,58.62
2017-07-02T17:46:20.729Z,59.34
2017-07-02T17:48:49.915Z,58.59
2017-07-02T17:51:19.212Z,59.21
2017-07-02T17:53:48.270Z,59.34
2017-07-02T17:56:17.349Z,58.30
2017-07-02T17:58:46.525Z,58.99
2017-07-02T18:01:15.597Z,59.18
2017-07-02T18:03:44.721Z,58.97
2017-07-02T18:06:13.789Z,58.00
2017-07-02T18:08:42.873Z,58.42
2017-07-02T18:11:11.932Z,57.69
2017-07-02T18:13:41.053Z,57.98
2017-07-02T18:16:10.104Z,58.00
2017-07-02T18:18:39.165Z,57.24
2017-07-02T18:21:08.292Z,58.09
2017-07-02T18:23:37.356Z,58.69
2017-07-02T18:26:06.755Z,58.26
2017-07-02T18:28:35.821Z,58.77
2017-07-02T18:31:04.953Z,59.44
2017-07-02T18:33:34.006Z,59.74
2017-07-02T18:36:03.074Z,59.93
2017-07-02T18:38:32.146Z,60.34
2017-07-02T18:41:01.204Z,60.69
2017-07-02T18:43:30.277Z,60.51
2017-07-02T18:45:59.332Z,59.60
2017-07-02T18:48:28.422Z,59.42
2017-07-02T18:50:57.493Z,60.53
2017-07-02T18:53:26.546Z,60.11
2017-07-02T18:55:55.649Z,59.57
2017-07-02T18:58:24.701Z,59.87
2017-07-02T19:00:53.789Z,60.50
2017-07-02T19:03:22.847Z,60.38
2017-07-02T19:05:52.044Z,61.09
2017-07-02T19:08:21.101Z,60.63
2017-07-02T19:10:50.935Z,60.33
2017-07-02T19:13:20.785Z,60.74
2017-07-02T19:15:49.863Z,60.83
2017-07-02T19:18:18.956Z,61.13
2017-07-02T19:20:48.050Z,61.01
2017-07-02T19:23:17.126Z,61.92
2017-07-02T19:25:46.966Z,62.24
2017-07-02T19:28:16.041Z,61.75
2017-07-02T19:30:45.111Z,62.35
2017-07-02T19:33:14.969Z,62.09
2017-07-02T19:35:44.891Z,61.99
2017-07-02T19:38:13.980Z,63.36
2017-07-02T19:40:43.063Z,62.57
2017-07-02T19:43:12.171Z,62.32
2017-07-02T19:45:41.287Z,61.55
2017-07-02T19:48:10.370Z,62.15
2017-07-02T19:50:39.436Z,61.44
2017-07-02T19:53:08.838Z,62.28
2017-07-02T19:55:37.902Z,61.95
2017-07-02T19:58:06.993Z,60.76
2017-07-02T20:00:36.048Z,61.65
2017-07-02T20:03:05.133Z,61.76
2017-07-02T20:05:34.244Z,62.45
2017-07-02T20:08:03.322Z,63.37
2017-07-02T20:10:32.412Z,63.56
2017-07-02T20:13:01.482Z,63.58
2017-07-02T20:15:30.539Z,62.35
2017-07-02T20:17:59.616Z,62.88
2017-07-02T20:20:28.676Z,62.98
2017-07-02T20:22:58.529Z,62.38
2017-07-02T20:25:27.608Z,62.88
2017-07-02T20:27:56.675Z,62.09
2017-07-02T20:30:26.590Z,62.97
2017-07-02T20:32:55.650Z,64.10
2017-07-02T20:35:24.714Z,64.39
2017-07-02T20:37:53.783Z,64.80
2017-07-02T20:40:23.622Z,65.15
2017-07-02T20:42:52.700Z,65.32
2017-07-02T20:45:21.831Z,66.02
2017-07-02T20:47:50.900Z,65.53
2017-07-02T20:50:20.704Z,64.45
2017-07-02T20:52:49.797Z,65.51
2017-07-02T20:55:19.624Z,65.90
2017-07-02T20:57:48.747Z,66.40
2017-07-02T21:00:17.843Z,66.04
2017-07-02T21:02:46.883Z,65.58
2017-07-02T21:05:16.770Z,65.81
2017-07-02T21:07:45.809Z,66.53
2017-07-02T21:10:14.892Z,66.85
2017-07-02T21:12:43.950Z,67.24
2017-07-02T21:15:13.066Z,67.20
2017-07-02T21:17:42.943Z,68.24
2017-07-02T21:20:12.018Z,68.77
2017-07-02T21:22:41.121Z,68.75
2017-07-02T21:25:11.239Z,69.60
2017-07-02T21:27:40.308Z,69.67
2017-07-02T21:30:09.394Z,70.80
2017-07-02T21:32:38.461Z,70.32
2017-07-02T21:35:07.588Z,70.14
2017-07-02T21:37:37.604Z,71.09
2017-07-02T21:40:07.473Z,71.22
2017-07-02T21:42:36.609Z,71.06
2017-07-02T21:45:06.680Z,71.22
2017-07-02T21:47:35.758Z,72.05
2017-07-02T21:50:04.837Z,71.40
2017-07-02T21:52:33.940Z,71.70
2017-07-02T21:55:02.988Z,72.14
2017-07-02T21:57:32.068Z,72.03
2017-07-02T22:00:01.121Z,72.02
2017-07-02T22:02:30.498Z,72.14
2017-07-02T22:04:59.560Z,72.34
2017-07-02T22:07:28.651Z,71.71
2017-07-02T22:09:58.067Z,71.54
2017-07-02T22:12:27.133Z,71.51
2017-07-02T22:14:56.210Z,71.79
2017-07-02T22:17:25.269Z,71.85
2017-07-02T22:19:54.352Z,71.84
2017-07-02T22:22:23.434Z,71.87
2017-07-02T22:24:52.468Z,70.73
2017-07-02T22:27:21.543Z,71.51
2017-07-02T22:29:50.644Z,71.22
2017-07-02T22:32:20.765Z,70.19
2017-07-02T22:34:49.857Z,70.37
2017-07-02T22:37:18.946Z,71.10
2017-07-02T22:39:48.014Z,70.61
2017-07-02T22:42:17.268Z,70.38
2017-07-02T22:44:46.379Z,70.21
2017-07-02T22:47:15.457Z,70.52
2017-07-02T22:49:44.505Z,70.51
2017-07-02T22:52:13.591Z,70.83
2017-07-02T22:54:42.920Z,70.26
2017-07-02T22:57:12.021Z,71.41
2017-07-02T22:59:41.065Z,71.08
2017-07-02T23:02:10.152Z,72.32
2017-07-02T23:04:39.440Z,72.35
2017-07-02T23:07:08.560Z,71.20
2017-07-02T23:09:37.655Z,71.50
2017-07-02T23:12:06.705Z,71.93
2017-07-02T23:14:35.819Z,71.91
2017-07-02T23:17:04.894Z,71.72
2017-07-02T23:19:34.161Z,71.71
2017-07-02T23:22:03.230Z,71.82
2017-07-02T23:24:32.303Z,71.58
2017-07-02T23:27:01.371Z,72.02
2017-07-02T23:29:30.437Z,71.96
2017-07-02T23:31:59.533Z,72.28
2017-07-02T23:34:28.597Z,72.41
2017-07-02T23:36:57.900Z,72.08
2017-07-02T23:39:26.988Z,72.22
2017-07-02T23:41:56.067Z,72.42
2017-07-02T23:44:25.133Z,73.30
2017-07-02T23:46:54.210Z,72.69
2017-07-02T23:49:23.263Z,72.98
2017-07-02T23:51:52.383Z,73.01
2017-07-02T23:54:21.441Z,73.46
2017-07-02T23:56:50.522Z,73.29
2017-07-02T23:59:19.548Z,73.68
